Time;durP1;ratioP1;P1;durP2;ratioP2;P2;SDS_P1;SDS_P2;PMS_P1;PMS_P2;Temp;Humidity;BMP_temperature;BMP_pressure;BME280_temperature;BME280_humidity;BME280_pressure;Samples;Min_cycle;Max_cycle;Signal;HPM_P1;HPM_P2
2022/09/17 00:00:02;;;;;;;0.20;0.10;;;;;;;;;;341556;28;1261;-88
2022/09/17 00:00:13;;;;;;;0.20;0.10;;;;;;;;;;344116;28;1176;-88
2022/09/17 00:00:24;;;;;;;0.30;0.08;;;;;;;;;;344196;28;1213;-88
2022/09/17 00:00:37;;;;;;;0.25;0.03;;;;;;;;;;341541;29;1198;-88
2022/09/17 00:00:48;;;;;;;0.25;0.03;;;;;;;;;;345502;28;1644;-88
2022/09/17 00:00:58;;;;;;;0.10;0.00;;;;;;;;;;342912;28;1556;-90
2022/09/17 00:01:22;;;;;;;0.30;0.10;;;;;;;;;;341568;28;1481;-88
2022/09/17 00:01:32;;;;;;;0.17;0.10;;;;;;;;;;344175;28;1437;-89
2022/09/17 00:01:43;;;;;;;0.20;0.10;;;;;;;;;;344225;28;801;-88
2022/09/17 00:01:53;;;;;;;0.22;0.10;;;;;;;;;;340255;29;1297;-88
2022/09/17 00:02:05;;;;;;;0.30;0.10;;;;;;;;;;341490;29;1227;-89
2022/09/17 00:02:16;;;;;;;0.90;0.30;;;;;;;;;;345579;28;848;-87
2022/09/17 00:02:29;;;;;;;1.00;0.30;;;;;;;;;;345665;28;843;-89
2022/09/17 00:02:39;;;;;;;1.05;0.30;;;;;;;;;;344191;28;1224;-92
2022/09/17 00:02:54;;;;;;;0.32;0.20;;;;;;;;;;344152;28;1319;-90
2022/09/17 00:03:05;;;;;;;0.32;0.13;;;;;;;;;;345547;28;895;-88
2022/09/17 00:03:16;;;;;;;1.10;0.10;;;;;;;;;;344211;28;1185;-88
2022/09/17 00:03:27;;;;;;;1.70;0.10;;;;;;;;;;342876;28;1205;-88
2022/09/17 00:03:37;;;;;;;1.50;0.10;;;;;;;;;;345502;28;1452;-90
2022/09/17 00:03:52;;;;;;;0.70;0.10;;;;;;;;;;344273;28;859;-88
2022/09/17 00:04:03;;;;;;;0.63;0.20;;;;;;;;;;343062;28;910;-88
2022/09/17 00:04:14;;;;;;;0.60;0.20;;;;;;;;;;342937;28;880;-88
2022/09/17 00:04:24;;;;;;;0.82;0.10;;;;;;;;;;343001;28;887;-87
2022/09/17 00:04:35;;;;;;;0.63;0.10;;;;;;;;;;342855;28;1473;-90
2022/09/17 00:04:47;;;;;;;0.60;0.05;;;;;;;;;;340295;29;840;-88
2022/09/17 00:04:57;;;;;;;0.93;0.05;;;;;;;;;;345558;28;1306;-88
2022/09/17 00:05:08;;;;;;;1.30;0.10;;;;;;;;;;344155;28;1211;-90
2022/09/17 00:05:19;;;;;;;1.30;0.15;;;;;;;;;;342778;28;1395;-89
2022/09/17 00:05:29;;;;;;;1.17;0.10;;;;;;;;;;344360;28;878;-90
2022/09/17 00:05:40;;;;;;;0.83;0.20;;;;;;;;;;345401;28;1172;-88
2022/09/17 00:05:59;;;;;;;0.93;0.20;;;;;;;;;;344276;28;808;-89
2022/09/17 00:06:11;;;;;;;0.43;0.10;;;;;;;;;;344354;28;880;-88
2022/09/17 00:06:22;;;;;;;0.10;0.10;;;;;;;;;;342839;28;1374;-88
2022/09/17 00:06:34;;;;;;;0.40;0.15;;;;;;;;;;341706;29;836;-90
2022/09/17 00:06:44;;;;;;;0.55;0.10;;;;;;;;;;342829;28;1423;-88
2022/09/17 00:06:55;;;;;;;1.20;0.10;;;;;;;;;;345629;28;867;-88
2022/09/17 00:07:05;;;;;;;1.17;0.17;;;;;;;;;;345475;28;1350;-88
2022/09/17 00:07:16;;;;;;;1.37;0.10;;;;;;;;;;345470;28;1199;-88
2022/09/17 00:07:27;;;;;;;0.98;0.22;;;;;;;;;;342852;28;1255;-90
2022/09/17 00:07:37;;;;;;;0.80;0.20;;;;;;;;;;345553;28;883;-90
2022/09/17 00:07:49;;;;;;;0.35;0.20;;;;;;;;;;344153;28;1299;-88
2022/09/17 00:07:59;;;;;;;0.20;0.10;;;;;;;;;;341522;29;1323;-88
2022/09/17 00:08:12;;;;;;;0.15;0.10;;;;;;;;;;344160;28;891;-88
2022/09/17 00:08:23;;;;;;;0.20;0.10;;;;;;;;;;342946;28;823;-87
2022/09/17 00:08:34;;;;;;;0.60;0.20;;;;;;;;;;342800;28;1264;-90
2022/09/17 00:08:45;;;;;;;0.47;0.15;;;;;;;;;;342824;28;1284;-90
2022/09/17 00:08:55;;;;;;;0.73;0.20;;;;;;;;;;346811;28;1434;-88
2022/09/17 00:09:06;;;;;;;0.50;0.20;;;;;;;;;;345700;28;930;-89
2022/09/17 00:09:16;;;;;;;0.40;0.20;;;;;;;;;;341462;28;1268;-88
2022/09/17 00:09:27;;;;;;;0.17;0.10;;;;;;;;;;341578;29;1308;-89
2022/09/17 00:09:38;;;;;;;0.75;0.10;;;;;;;;;;345441;28;1302;-89
2022/09/17 00:09:48;;;;;;;1.33;0.10;;;;;;;;;;344259;28;840;-88
2022/09/17 00:09:59;;;;;;;1.42;0.17;;;;;;;;;;342809;28;1300;-88
2022/09/17 00:10:09;;;;;;;1.20;0.20;;;;;;;;;;344048;28;1275;-89
2022/09/17 00:10:20;;;;;;;0.80;0.20;;;;;;;;;;341580;28;820;-88
2022/09/17 00:10:30;;;;;;;0.47;0.13;;;;;;;;;;342940;28;868;-87
2022/09/17 00:10:42;;;;;;;0.47;0.10;;;;;;;;;;342948;28;1301;-88
2022/09/17 00:10:52;;;;;;;0.32;0.10;;;;;;;;;;338830;29;1353;-89
2022/09/17 00:11:14;;;;;;;0.23;0.10;;;;;;;;;;342855;28;1313;-87
2022/09/17 00:11:27;;;;;;;0.43;0.20;;;;;;;;;;344279;28;974;-89
2022/09/17 00:11:40;;;;;;;0.63;0.30;;;;;;;;;;342739;28;1381;-89
2022/09/17 00:11:51;;;;;;;0.98;0.28;;;;;;;;;;342984;28;942;-88
2022/09/17 00:12:01;;;;;;;0.88;0.13;;;;;;;;;;344163;28;1416;-89
2022/09/17 00:12:12;;;;;;;0.60;0.10;;;;;;;;;;344088;28;1197;-89
2022/09/17 00:12:22;;;;;;;0.28;0.10;;;;;;;;;;341499;28;1202;-89
2022/09/17 00:12:33;;;;;;;0.40;0.10;;;;;;;;;;341473;29;1362;-88
2022/09/17 00:12:44;;;;;;;0.35;0.10;;;;;;;;;;345389;28;1265;-90
2022/09/17 00:12:54;;;;;;;0.30;0.10;;;;;;;;;;345589;28;1243;-89
2022/09/17 00:13:05;;;;;;;0.10;0.10;;;;;;;;;;342854;28;1233;-89
2022/09/17 00:13:15;;;;;;;0.32;0.10;;;;;;;;;;345585;28;875;-88
2022/09/17 00:13:26;;;;;;;0.40;0.10;;;;;;;;;;344234;28;1387;-88
2022/09/17 00:13:36;;;;;;;0.40;0.10;;;;;;;;;;342783;28;1364;-89
2022/09/17 00:13:47;;;;;;;0.30;0.10;;;;;;;;;;345525;28;1242;-88
2022/09/17 00:13:59;;;;;;;0.95;0.15;;;;;;;;;;341462;29;1442;-88
2022/09/17 00:14:15;;;;;;;1.55;0.22;;;;;;;;;;342912;28;1284;-88
2022/09/17 00:14:25;;;;;;;1.75;0.30;;;;;;;;;;344209;28;1247;-89
2022/09/17 00:14:35;;;;;;;0.55;0.20;;;;;;;;;;341463;29;1302;-89
2022/09/17 00:14:46;;;;;;;0.50;0.10;;;;;;;;;;341479;29;1224;-89
2022/09/17 00:14:57;;;;;;;0.20;0.10;;;;;;;;;;341594;29;789;-89
2022/09/17 00:15:08;;;;;;;0.10;0.03;;;;;;;;;;338819;29;1225;-89
2022/09/17 00:15:19;;;;;;;0.20;0.00;;;;;;;;;;339016;29;876;-88
2022/09/17 00:15:29;;;;;;;0.60;0.00;;;;;;;;;;342830;28;1187;-88
2022/09/17 00:15:43;;;;;;;0.60;0.00;;;;;;;;;;344257;28;824;-90
2022/09/17 00:15:54;;;;;;;0.40;0.10;;;;;;;;;;341575;28;1232;-89
2022/09/17 00:16:04;;;;;;;0.10;0.10;;;;;;;;;;342685;28;1236;-88
2022/09/17 00:16:30;;;;;;;0.10;0.10;;;;;;;;;;344128;28;1197;-89
2022/09/17 00:16:43;;;;;;;1.73;0.20;;;;;;;;;;342702;28;1352;-89
2022/09/17 00:16:53;;;;;;;0.35;0.10;;;;;;;;;;341563;29;1286;-89
2022/09/17 00:17:04;;;;;;;0.60;0.10;;;;;;;;;;342763;28;1288;-89
2022/09/17 00:17:14;;;;;;;1.07;0.10;;;;;;;;;;344216;28;805;-89
2022/09/17 00:17:25;;;;;;;1.20;0.20;;;;;;;;;;342863;28;1415;-89
2022/09/17 00:17:35;;;;;;;0.20;0.10;;;;;;;;;;341438;29;1139;-89
2022/09/17 00:17:46;;;;;;;0.32;0.10;;;;;;;;;;342823;28;1262;-89
2022/09/17 00:17:57;;;;;;;0.80;0.10;;;;;;;;;;344278;28;796;-89
2022/09/17 00:18:07;;;;;;;0.80;0.10;;;;;;;;;;341428;28;840;-89
2022/09/17 00:18:18;;;;;;;0.53;0.10;;;;;;;;;;341646;29;930;-89
2022/09/17 00:18:28;;;;;;;0.28;0.05;;;;;;;;;;344285;28;1027;-88
2022/09/17 00:18:40;;;;;;;0.40;0.10;;;;;;;;;;342873;28;860;-89
2022/09/17 00:18:51;;;;;;;0.40;0.10;;;;;;;;;;344152;28;1270;-89
2022/09/17 00:19:02;;;;;;;0.10;0.00;;;;;;;;;;340137;29;1191;-88
2022/09/17 00:19:14;;;;;;;0.30;0.10;;;;;;;;;;344070;28;1476;-89
2022/09/17 00:19:25;;;;;;;0.88;0.20;;;;;;;;;;344188;28;1262;-89
2022/09/17 00:19:35;;;;;;;1.07;0.20;;;;;;;;;;342765;28;1252;-89
2022/09/17 00:19:46;;;;;;;0.90;0.10;;;;;;;;;;345673;28;882;-89
2022/09/17 00:19:56;;;;;;;0.37;0.10;;;;;;;;;;344203;28;1153;-89
2022/09/17 00:20:09;;;;;;;0.10;0.10;;;;;;;;;;341360;29;1300;-90
2022/09/17 00:20:20;;;;;;;0.20;0.10;;;;;;;;;;344151;28;1261;-89
2022/09/17 00:20:31;;;;;;;0.10;0.10;;;;;;;;;;342807;28;1356;-88
2022/09/17 00:20:43;;;;;;;0.20;0.10;;;;;;;;;;342863;28;855;-89
2022/09/17 00:20:53;;;;;;;1.00;0.20;;;;;;;;;;341509;29;1385;-89
2022/09/17 00:21:04;;;;;;;1.13;0.20;;;;;;;;;;342830;28;820;-89
2022/09/17 00:21:16;;;;;;;1.10;0.20;;;;;;;;;;345390;28;1219;-89
2022/09/17 00:21:26;;;;;;;0.47;0.10;;;;;;;;;;345486;28;2095;-88
2022/09/17 00:21:37;;;;;;;0.90;0.10;;;;;;;;;;341441;29;1191;-89
2022/09/17 00:21:48;;;;;;;0.88;0.10;;;;;;;;;;341523;28;1326;-89
2022/09/17 00:21:58;;;;;;;1.10;0.20;;;;;;;;;;344298;28;1249;-89
2022/09/17 00:22:09;;;;;;;0.63;0.20;;;;;;;;;;343989;28;1263;-88
2022/09/17 00:22:19;;;;;;;0.63;0.20;;;;;;;;;;341566;28;1280;-90
2022/09/17 00:22:30;;;;;;;0.33;0.20;;;;;;;;;;344150;28;1192;-89
2022/09/17 00:22:40;;;;;;;0.32;0.10;;;;;;;;;;344083;28;1194;-89
2022/09/17 00:22:51;;;;;;;0.70;0.20;;;;;;;;;;344163;28;1267;-89
2022/09/17 00:23:01;;;;;;;0.75;0.25;;;;;;;;;;345492;28;1320;-88
2022/09/17 00:23:12;;;;;;;1.30;0.30;;;;;;;;;;341415;28;1137;-89
2022/09/17 00:23:23;;;;;;;1.73;0.30;;;;;;;;;;341510;28;1314;-89
2022/09/17 00:23:33;;;;;;;1.73;0.30;;;;;;;;;;345527;28;1349;-90
2022/09/17 00:23:44;;;;;;;1.35;0.25;;;;;;;;;;345571;28;808;-89
2022/09/17 00:23:58;;;;;;;0.47;0.20;;;;;;;;;;342933;28;813;-89
2022/09/17 00:24:10;;;;;;;0.25;0.15;;;;;;;;;;341296;29;1373;-88
2022/09/17 00:24:20;;;;;;;0.45;0.20;;;;;;;;;;341598;29;871;-88
2022/09/17 00:24:31;;;;;;;1.20;0.30;;;;;;;;;;344174;28;1221;-88
2022/09/17 00:24:41;;;;;;;1.20;0.30;;;;;;;;;;344219;28;898;-90
2022/09/17 00:24:52;;;;;;;1.03;0.30;;;;;;;;;;338887;29;1158;-88
2022/09/17 00:25:03;;;;;;;0.43;0.13;;;;;;;;;;342751;28;1314;-88
2022/09/17 00:25:13;;;;;;;0.98;0.10;;;;;;;;;;342705;28;1438;-89
2022/09/17 00:25:24;;;;;;;1.13;0.10;;;;;;;;;;340214;29;1141;-89
2022/09/17 00:25:38;;;;;;;1.08;0.20;;;;;;;;;;344219;28;930;-88
2022/09/17 00:25:49;;;;;;;0.60;0.20;;;;;;;;;;342838;28;940;-89
2022/09/17 00:26:03;;;;;;;0.20;0.10;;;;;;;;;;341509;29;1287;-89
2022/09/17 00:26:13;;;;;;;0.15;0.10;;;;;;;;;;344023;28;1280;-88
2022/09/17 00:26:24;;;;;;;0.23;0.10;;;;;;;;;;344191;28;1203;-88
2022/09/17 00:26:35;;;;;;;0.20;0.10;;;;;;;;;;342819;28;1350;-89
2022/09/17 00:26:46;;;;;;;0.20;0.10;;;;;;;;;;344053;28;1467;-88
2022/09/17 00:26:57;;;;;;;0.30;0.22;;;;;;;;;;342950;28;849;-89
2022/09/17 00:27:08;;;;;;;1.33;0.60;;;;;;;;;;341323;29;1229;-89
2022/09/17 00:27:18;;;;;;;1.60;0.80;;;;;;;;;;345568;28;938;-89
2022/09/17 00:27:28;;;;;;;1.13;0.67;;;;;;;;;;346801;28;1173;-88
2022/09/17 00:27:39;;;;;;;0.60;0.50;;;;;;;;;;344291;28;839;-88
2022/09/17 00:27:49;;;;;;;1.03;0.60;;;;;;;;;;341543;29;1265;-88
2022/09/17 00:28:00;;;;;;;1.33;0.60;;;;;;;;;;342830;28;1340;-88
2022/09/17 00:28:12;;;;;;;1.30;0.57;;;;;;;;;;345363;28;1212;-88
2022/09/17 00:28:22;;;;;;;0.82;0.50;;;;;;;;;;342821;28;1236;-88
2022/09/17 00:28:33;;;;;;;0.50;0.35;;;;;;;;;;340136;29;1186;-89
2022/09/17 00:28:47;;;;;;;0.30;0.30;;;;;;;;;;345405;28;1282;-89
2022/09/17 00:28:57;;;;;;;0.60;0.20;;;;;;;;;;344133;28;1420;-88
2022/09/17 00:29:08;;;;;;;1.00;0.20;;;;;;;;;;342673;28;1272;-89
2022/09/17 00:29:19;;;;;;;1.08;0.20;;;;;;;;;;344122;28;1185;-88
2022/09/17 00:29:29;;;;;;;0.67;0.20;;;;;;;;;;342925;28;859;-88
2022/09/17 00:29:40;;;;;;;0.57;0.20;;;;;;;;;;341314;29;1232;-88
2022/09/17 00:29:50;;;;;;;0.53;0.20;;;;;;;;;;342808;28;1361;-88
2022/09/17 00:30:01;;;;;;;0.40;0.10;;;;;;;;;;342866;28;896;-89
2022/09/17 00:30:12;;;;;;;0.17;0.10;;;;;;;;;;344174;28;1302;-89
2022/09/17 00:30:22;;;;;;;0.25;0.10;;;;;;;;;;344156;28;1910;-89
2022/09/17 00:30:33;;;;;;;0.40;0.13;;;;;;;;;;342782;28;1272;-89
2022/09/17 00:30:44;;;;;;;0.37;0.20;;;;;;;;;;342846;28;911;-88
2022/09/17 00:30:54;;;;;;;0.60;0.30;;;;;;;;;;344172;28;1297;-89
2022/09/17 00:31:08;;;;;;;0.43;0.20;;;;;;;;;;342811;28;933;-88
2022/09/17 00:31:19;;;;;;;0.63;0.10;;;;;;;;;;342835;28;1404;-88
2022/09/17 00:31:30;;;;;;;0.82;0.10;;;;;;;;;;341448;29;1323;-88
2022/09/17 00:31:40;;;;;;;0.90;0.20;;;;;;;;;;340264;29;839;-89
2022/09/17 00:31:51;;;;;;;0.38;0.10;;;;;;;;;;344180;28;1379;-88
2022/09/17 00:32:01;;;;;;;0.32;0.10;;;;;;;;;;344188;28;1396;-88
2022/09/17 00:32:12;;;;;;;0.27;0.10;;;;;;;;;;342809;28;1158;-89
2022/09/17 00:32:22;;;;;;;0.35;0.10;;;;;;;;;;342867;28;1049;-89
2022/09/17 00:32:33;;;;;;;0.37;0.10;;;;;;;;;;345543;28;1238;-87
2022/09/17 00:32:43;;;;;;;0.22;0.10;;;;;;;;;;345429;28;1222;-89
2022/09/17 00:32:56;;;;;;;0.63;0.10;;;;;;;;;;346832;28;1329;-89
2022/09/17 00:33:07;;;;;;;1.10;0.20;;;;;;;;;;342702;28;1376;-89
2022/09/17 00:33:19;;;;;;;1.13;0.20;;;;;;;;;;341470;29;1352;-87
2022/09/17 00:33:29;;;;;;;1.02;0.20;;;;;;;;;;342832;28;1313;-88
2022/09/17 00:33:39;;;;;;;0.65;0.20;;;;;;;;;;344179;28;1372;-90
2022/09/17 00:33:50;;;;;;;0.60;0.20;;;;;;;;;;346843;28;1195;-88
2022/09/17 00:34:01;;;;;;;0.32;0.10;;;;;;;;;;342731;28;1216;-88
2022/09/17 00:34:11;;;;;;;0.25;0.10;;;;;;;;;;344215;28;971;-88
2022/09/17 00:34:22;;;;;;;0.30;0.10;;;;;;;;;;342750;28;1240;-88
2022/09/17 00:34:32;;;;;;;1.40;0.20;;;;;;;;;;342954;28;820;-88
2022/09/17 00:34:43;;;;;;;1.27;0.20;;;;;;;;;;340222;29;895;-88
2022/09/17 00:34:53;;;;;;;1.05;0.15;;;;;;;;;;342929;28;875;-88
2022/09/17 00:35:04;;;;;;;0.40;0.10;;;;;;;;;;342875;28;836;-89
2022/09/17 00:35:15;;;;;;;0.55;0.10;;;;;;;;;;341455;29;1329;-89
2022/09/17 00:35:26;;;;;;;0.55;0.20;;;;;;;;;;340237;29;844;-89
2022/09/17 00:35:36;;;;;;;0.70;0.20;;;;;;;;;;341438;28;1317;-88
2022/09/17 00:35:57;;;;;;;1.10;0.20;;;;;;;;;;342916;28;813;-89
2022/09/17 00:36:07;;;;;;;1.15;0.22;;;;;;;;;;341359;28;1350;-88
2022/09/17 00:36:19;;;;;;;0.60;0.20;;;;;;;;;;342836;28;1162;-88
2022/09/17 00:36:30;;;;;;;0.38;0.20;;;;;;;;;;342773;28;1430;-88
2022/09/17 00:36:40;;;;;;;0.50;0.10;;;;;;;;;;340124;29;1225;-88
2022/09/17 00:36:51;;;;;;;1.20;0.10;;;;;;;;;;341518;29;1417;-88
2022/09/17 00:37:01;;;;;;;1.30;0.10;;;;;;;;;;342760;28;1321;-88
2022/09/17 00:37:11;;;;;;;1.20;0.20;;;;;;;;;;342794;28;1330;-88
2022/09/17 00:37:22;;;;;;;0.60;0.20;;;;;;;;;;342849;28;1231;-88
2022/09/17 00:37:32;;;;;;;0.40;0.20;;;;;;;;;;341424;29;1173;-88
2022/09/17 00:37:43;;;;;;;0.10;0.10;;;;;;;;;;340127;29;1212;-89
2022/09/17 00:37:53;;;;;;;0.30;0.20;;;;;;;;;;338955;29;1172;-88
2022/09/17 00:38:04;;;;;;;0.88;0.20;;;;;;;;;;340171;29;1324;-89
2022/09/17 00:38:14;;;;;;;1.57;0.30;;;;;;;;;;341449;29;1302;-89
2022/09/17 00:38:25;;;;;;;1.40;0.22;;;;;;;;;;344085;28;840;-88
2022/09/17 00:38:36;;;;;;;0.63;0.10;;;;;;;;;;345476;28;1303;-87
2022/09/17 00:38:50;;;;;;;0.13;0.10;;;;;;;;;;341489;29;1166;-88
2022/09/17 00:39:00;;;;;;;0.30;0.10;;;;;;;;;;342833;28;880;-88
2022/09/17 00:39:11;;;;;;;0.40;0.10;;;;;;;;;;346813;28;1208;-89
2022/09/17 00:39:22;;;;;;;0.40;0.10;;;;;;;;;;346972;28;867;-89
2022/09/17 00:39:32;;;;;;;0.47;0.10;;;;;;;;;;342745;28;1188;-88
2022/09/17 00:39:43;;;;;;;0.40;0.10;;;;;;;;;;342802;28;1306;-89
2022/09/17 00:39:53;;;;;;;0.30;0.10;;;;;;;;;;346965;28;1223;-88
2022/09/17 00:40:04;;;;;;;1.23;0.13;;;;;;;;;;344149;28;1358;-90
2022/09/17 00:40:14;;;;;;;1.27;0.17;;;;;;;;;;341419;29;1295;-87
2022/09/17 00:40:25;;;;;;;1.30;0.20;;;;;;;;;;344102;28;1266;-89
2022/09/17 00:40:36;;;;;;;0.70;0.20;;;;;;;;;;344132;28;1430;-89
2022/09/17 00:40:46;;;;;;;0.70;0.20;;;;;;;;;;341561;29;955;-90
2022/09/17 00:40:56;;;;;;;0.40;0.10;;;;;;;;;;342872;28;935;-88
2022/09/17 00:41:07;;;;;;;0.30;0.10;;;;;;;;;;342737;28;1150;-89
2022/09/17 00:41:18;;;;;;;0.10;0.10;;;;;;;;;;342912;28;864;-88
2022/09/17 00:41:30;;;;;;;0.30;0.10;;;;;;;;;;345387;28;1401;-87
2022/09/17 00:41:40;;;;;;;0.40;0.10;;;;;;;;;;342687;28;1326;-87
2022/09/17 00:41:50;;;;;;;0.35;0.10;;;;;;;;;;344245;28;855;-88
2022/09/17 00:42:04;;;;;;;0.10;0.10;;;;;;;;;;345532;28;852;-88
2022/09/17 00:42:15;;;;;;;0.30;0.10;;;;;;;;;;344084;28;1266;-88
2022/09/17 00:42:25;;;;;;;0.30;0.10;;;;;;;;;;342758;28;1303;-88
2022/09/17 00:42:36;;;;;;;0.20;0.00;;;;;;;;;;345521;28;1113;-87
2022/09/17 00:42:46;;;;;;;1.15;0.10;;;;;;;;;;340172;29;1201;-88
2022/09/17 00:42:57;;;;;;;1.60;0.10;;;;;;;;;;341385;29;1347;-87
2022/09/17 00:43:10;;;;;;;1.63;0.10;;;;;;;;;;342790;28;959;-89
2022/09/17 00:43:41;;;;;;;0.90;0.03;;;;;;;;;;344254;28;851;-88
2022/09/17 00:43:56;;;;;;;0.85;0.20;;;;;;;;;;342772;28;1271;-87
2022/09/17 00:44:43;;;;;;;1.60;0.15;;;;;;;;;;344087;28;975;-89
2022/09/17 00:44:55;;;;;;;1.10;0.22;;;;;;;;;;344231;28;839;-88
2022/09/17 00:45:06;;;;;;;0.30;0.20;;;;;;;;;;342806;28;1548;-88
2022/09/17 00:45:16;;;;;;;0.40;0.20;;;;;;;;;;341447;29;1309;-88
2022/09/17 00:45:27;;;;;;;0.20;0.10;;;;;;;;;;341436;29;1161;-90
2022/09/17 00:45:37;;;;;;;0.17;0.10;;;;;;;;;;342669;28;1642;-90
2022/09/17 00:45:48;;;;;;;0.15;0.10;;;;;;;;;;342842;28;1173;-90
2022/09/17 00:45:58;;;;;;;0.20;0.10;;;;;;;;;;342756;28;1180;-88
2022/09/17 00:46:30;;;;;;;0.28;0.15;;;;;;;;;;346798;28;1157;-89
2022/09/17 00:46:43;;;;;;;0.50;0.20;;;;;;;;;;339982;29;915;-90
2022/09/17 00:46:53;;;;;;;0.10;0.10;;;;;;;;;;338726;29;884;-90
2022/09/17 00:47:05;;;;;;;0.30;0.20;;;;;;;;;;342514;28;1233;-89
2022/09/17 00:47:23;;;;;;;0.47;0.20;;;;;;;;;;345392;28;1473;-91
2022/09/17 00:47:36;;;;;;;0.40;0.10;;;;;;;;;;345572;28;957;-87
2022/09/17 00:48:03;;;;;;;0.45;0.10;;;;;;;;;;341469;29;1222;-90
2022/09/17 00:48:13;;;;;;;0.73;0.10;;;;;;;;;;344001;28;1438;-89
2022/09/17 00:48:24;;;;;;;0.90;0.10;;;;;;;;;;345484;28;1285;-88
2022/09/17 00:48:34;;;;;;;1.40;0.10;;;;;;;;;;340101;29;1233;-88
2022/09/17 00:48:45;;;;;;;0.67;0.00;;;;;;;;;;342721;28;1490;-90
2022/09/17 00:48:57;;;;;;;0.70;0.00;;;;;;;;;;344090;28;1439;-88
2022/09/17 00:49:15;;;;;;;0.40;0.08;;;;;;;;;;345403;28;1243;-89
2022/09/17 00:49:28;;;;;;;0.60;0.20;;;;;;;;;;342774;28;1269;-87
2022/09/17 00:49:38;;;;;;;0.40;0.10;;;;;;;;;;344099;28;950;-88
2022/09/17 00:49:51;;;;;;;0.52;0.13;;;;;;;;;;344244;28;880;-88
2022/09/17 00:50:26;;;;;;;0.60;0.20;;;;;;;;;;344116;28;1250;-88
2022/09/17 00:50:38;;;;;;;1.38;0.30;;;;;;;;;;344111;28;935;-89
2022/09/17 00:50:49;;;;;;;1.00;0.20;;;;;;;;;;341545;29;848;-88
2022/09/17 00:51:00;;;;;;;1.13;0.20;;;;;;;;;;342760;28;1185;-88
2022/09/17 00:51:10;;;;;;;0.63;0.20;;;;;;;;;;341477;29;1213;-90
2022/09/17 00:51:25;;;;;;;0.73;0.20;;;;;;;;;;341489;28;1315;-88
2022/09/17 00:51:38;;;;;;;0.50;0.20;;;;;;;;;;345468;28;1410;-88
2022/09/17 00:52:08;;;;;;;0.93;0.13;;;;;;;;;;345456;28;1203;-91
2022/09/17 00:52:23;;;;;;;1.17;0.17;;;;;;;;;;341491;28;884;-89
2022/09/17 00:52:39;;;;;;;0.40;0.17;;;;;;;;;;342798;28;1269;-89
2022/09/17 00:52:56;;;;;;;0.40;0.20;;;;;;;;;;344126;28;890;-88
2022/09/17 00:53:16;;;;;;;0.17;0.10;;;;;;;;;;341294;29;1271;-89
2022/09/17 00:53:27;;;;;;;0.70;0.20;;;;;;;;;;344134;28;931;-90
2022/09/17 00:53:37;;;;;;;0.90;0.30;;;;;;;;;;342691;28;1189;-91
2022/09/17 00:53:48;;;;;;;0.40;0.20;;;;;;;;;;341338;28;1323;-90
2022/09/17 00:53:58;;;;;;;0.43;0.17;;;;;;;;;;345456;28;1196;-88
2022/09/17 00:54:09;;;;;;;0.50;0.10;;;;;;;;;;342672;28;1390;-89
2022/09/17 00:54:19;;;;;;;0.50;0.13;;;;;;;;;;341441;29;1460;-88
2022/09/17 00:54:30;;;;;;;0.20;0.20;;;;;;;;;;344171;28;1186;-88
2022/09/17 00:54:42;;;;;;;0.35;0.20;;;;;;;;;;342658;28;1543;-88
2022/09/17 00:55:31;;;;;;;1.15;0.10;;;;;;;;;;341372;29;1237;-88
2022/09/17 00:55:44;;;;;;;0.50;0.20;;;;;;;;;;337322;29;1449;-91
2022/09/17 00:56:01;;;;;;;0.38;0.20;;;;;;;;;;337453;29;1244;-88
2022/09/17 00:56:22;;;;;;;0.10;0.05;;;;;;;;;;338720;29;1281;-90
2022/09/17 00:56:34;;;;;;;0.20;0.10;;;;;;;;;;337502;29;932;-90
2022/09/17 00:56:44;;;;;;;0.43;0.17;;;;;;;;;;335967;28;1283;-88
2022/09/17 00:56:55;;;;;;;0.40;0.20;;;;;;;;;;344182;28;785;-88
2022/09/17 00:57:06;;;;;;;0.35;0.20;;;;;;;;;;341461;29;1436;-88
2022/09/17 00:57:16;;;;;;;0.10;0.10;;;;;;;;;;342792;28;1194;-90
2022/09/17 00:57:27;;;;;;;0.40;0.10;;;;;;;;;;342801;28;1377;-89
2022/09/17 00:57:39;;;;;;;0.60;0.10;;;;;;;;;;342630;28;1126;-90
2022/09/17 00:57:50;;;;;;;0.38;0.03;;;;;;;;;;344004;28;1225;-88
2022/09/17 00:58:02;;;;;;;0.40;0.10;;;;;;;;;;344240;28;820;-89
2022/09/17 00:58:13;;;;;;;0.50;0.10;;;;;;;;;;342698;28;1359;-89
2022/09/17 00:58:23;;;;;;;1.00;0.10;;;;;;;;;;341607;29;840;-90
2022/09/17 00:58:34;;;;;;;0.90;0.05;;;;;;;;;;342799;28;1240;-88
2022/09/17 00:58:44;;;;;;;0.60;0.00;;;;;;;;;;342727;28;1409;-90
2022/09/17 00:58:55;;;;;;;0.70;0.00;;;;;;;;;;342713;28;1238;-88
2022/09/17 00:59:06;;;;;;;0.70;0.10;;;;;;;;;;345502;28;1173;-88
2022/09/17 00:59:17;;;;;;;0.73;0.10;;;;;;;;;;344110;28;1156;-89
2022/09/17 00:59:28;;;;;;;0.10;0.00;;;;;;;;;;342906;28;879;-88
2022/09/17 00:59:38;;;;;;;0.33;0.00;;;;;;;;;;344187;28;851;-89
2022/09/17 00:59:49;;;;;;;0.40;0.10;;;;;;;;;;342710;28;1296;-88
2022/09/17 00:59:59;;;;;;;0.40;0.10;;;;;;;;;;342922;28;796;-91
2022/09/17 01:00:12;;;;;;;0.20;0.10;;;;;;;;;;345420;28;1260;-89
2022/09/17 01:00:22;;;;;;;0.20;0.10;;;;;;;;;;341422;29;1475;-89
2022/09/17 01:00:33;;;;;;;0.13;0.10;;;;;;;;;;342797;28;1328;-88
2022/09/17 01:00:45;;;;;;;0.10;0.00;;;;;;;;;;345303;28;1259;-88
2022/09/17 01:00:56;;;;;;;0.32;0.05;;;;;;;;;;345548;28;1005;-88
2022/09/17 01:01:07;;;;;;;0.70;0.10;;;;;;;;;;344078;28;1347;-90
2022/09/17 01:01:17;;;;;;;0.80;0.10;;;;;;;;;;342753;28;1201;-88
2022/09/17 01:01:29;;;;;;;0.52;0.05;;;;;;;;;;344242;28;902;-88
2022/09/17 01:01:39;;;;;;;0.85;0.13;;;;;;;;;;340111;29;1293;-90
2022/09/17 01:01:50;;;;;;;0.90;0.20;;;;;;;;;;342700;28;1177;-88
2022/09/17 01:02:00;;;;;;;0.43;0.40;;;;;;;;;;345422;28;1171;-88
2022/09/17 01:02:11;;;;;;;0.40;0.30;;;;;;;;;;342756;28;1319;-90
2022/09/17 01:02:21;;;;;;;0.68;0.30;;;;;;;;;;342824;28;1197;-88
2022/09/17 01:02:32;;;;;;;0.60;0.10;;;;;;;;;;340087;29;1177;-88
2022/09/17 01:02:42;;;;;;;0.70;0.10;;;;;;;;;;345352;28;1196;-88
2022/09/17 01:02:53;;;;;;;0.30;0.10;;;;;;;;;;342738;28;1221;-88
2022/09/17 01:03:03;;;;;;;0.15;0.05;;;;;;;;;;340195;29;1303;-89
2022/09/17 01:03:14;;;;;;;0.10;0.10;;;;;;;;;;344136;28;796;-89
2022/09/17 01:03:25;;;;;;;0.10;0.10;;;;;;;;;;342923;28;856;-89
2022/09/17 01:03:36;;;;;;;0.20;0.00;;;;;;;;;;344110;28;1181;-89
2022/09/17 01:03:46;;;;;;;0.20;0.08;;;;;;;;;;341451;29;883;-89
2022/09/17 01:03:57;;;;;;;0.23;0.10;;;;;;;;;;341505;29;837;-88
2022/09/17 01:04:17;;;;;;;0.20;0.10;;;;;;;;;;344185;28;836;-88
2022/09/17 01:04:27;;;;;;;1.00;0.10;;;;;;;;;;342788;28;1268;-88
2022/09/17 01:04:37;;;;;;;1.00;0.10;;;;;;;;;;340159;29;829;-89
2022/09/17 01:04:48;;;;;;;1.02;0.10;;;;;;;;;;342716;28;1332;-89
2022/09/17 01:04:58;;;;;;;0.20;0.07;;;;;;;;;;344082;28;1239;-88
2022/09/17 01:05:10;;;;;;;1.00;0.10;;;;;;;;;;340191;29;844;-90
2022/09/17 01:05:27;;;;;;;1.10;0.10;;;;;;;;;;344153;28;1238;-89
2022/09/17 01:05:48;;;;;;;0.75;0.08;;;;;;;;;;344163;28;875;-88
2022/09/17 01:06:32;;;;;;;0.30;0.00;;;;;;;;;;345441;28;919;-88
2022/09/17 01:07:19;;;;;;;0.15;0.10;;;;;;;;;;341252;29;1245;-87
2022/09/17 01:07:46;;;;;;;0.30;0.10;;;;;;;;;;342857;28;900;-88
2022/09/17 01:08:03;;;;;;;0.80;0.20;;;;;;;;;;345054;28;879;-88
2022/09/17 01:08:44;;;;;;;0.08;0.08;;;;;;;;;;341388;29;1289;-89
2022/09/17 01:09:16;;;;;;;0.63;0.10;;;;;;;;;;340225;29;848;-89
2022/09/17 01:09:41;;;;;;;0.90;0.90;;;;;;;;;;342733;28;1252;-88
2022/09/17 01:09:56;;;;;;;0.63;0.10;;;;;;;;;;344094;28;1226;-90
2022/09/17 01:10:12;;;;;;;0.80;0.10;;;;;;;;;;346480;28;1320;-87
2022/09/17 01:10:44;;;;;;;0.40;0.10;;;;;;;;;;345415;28;1914;-88
2022/09/17 01:11:06;;;;;;;0.10;0.10;;;;;;;;;;342750;28;912;-89
2022/09/17 01:11:34;;;;;;;0.17;0.00;;;;;;;;;;343998;28;1295;-88
2022/09/17 01:11:48;;;;;;;0.45;0.20;;;;;;;;;;344040;28;956;-88
2022/09/17 01:12:13;;;;;;;0.10;0.08;;;;;;;;;;344089;28;1389;-88
2022/09/17 01:12:41;;;;;;;0.40;0.10;;;;;;;;;;341459;29;930;-88
2022/09/17 01:13:12;;;;;;;0.10;0.10;;;;;;;;;;342655;28;1257;-89
2022/09/17 01:13:44;;;;;;;0.30;0.30;;;;;;;;;;344063;28;953;-89
2022/09/17 01:14:06;;;;;;;0.40;0.20;;;;;;;;;;345401;28;927;-89
2022/09/17 01:14:33;;;;;;;0.10;0.10;;;;;;;;;;345890;28;1351;-88
2022/09/17 01:14:49;;;;;;;0.10;0.10;;;;;;;;;;346706;28;1581;-88
2022/09/17 01:15:02;;;;;;;0.60;0.10;;;;;;;;;;345475;28;1515;-88
2022/09/17 01:15:35;;;;;;;0.60;0.10;;;;;;;;;;345289;28;1213;-88
2022/09/17 01:15:55;;;;;;;0.30;0.20;;;;;;;;;;342653;28;900;-88
2022/09/17 01:16:15;;;;;;;0.50;0.30;;;;;;;;;;342696;28;1364;-90
2022/09/17 01:16:59;;;;;;;0.13;0.10;;;;;;;;;;344137;28;1293;-89
2022/09/17 01:17:18;;;;;;;0.05;0.05;;;;;;;;;;341294;29;941;-88
2022/09/17 01:17:49;;;;;;;0.10;0.10;;;;;;;;;;342837;28;987;-88
2022/09/17 01:18:08;;;;;;;0.40;0.10;;;;;;;;;;342754;28;912;-88
2022/09/17 01:18:38;;;;;;;0.60;0.20;;;;;;;;;;342737;28;1336;-88
2022/09/17 01:19:10;;;;;;;0.32;0.10;;;;;;;;;;341412;28;904;-89
2022/09/17 01:19:39;;;;;;;0.10;0.10;;;;;;;;;;341306;29;919;-88
2022/09/17 01:19:49;;;;;;;0.30;0.10;;;;;;;;;;340071;29;932;-90
2022/09/17 01:20:21;;;;;;;0.20;0.10;;;;;;;;;;341409;29;1138;-90
2022/09/17 01:21:09;;;;;;;1.30;0.10;;;;;;;;;;343849;28;1128;-89
2022/09/17 01:21:37;;;;;;;0.45;0.20;;;;;;;;;;346293;28;1335;-87
2022/09/17 01:21:50;;;;;;;0.05;0.05;;;;;;;;;;345508;28;954;-89
2022/09/17 01:22:07;;;;;;;0.25;0.00;;;;;;;;;;344126;28;1409;-89
2022/09/17 01:22:32;;;;;;;0.70;0.10;;;;;;;;;;341461;29;876;-89
2022/09/17 01:22:58;;;;;;;0.70;0.20;;;;;;;;;;341278;29;1266;-90
2022/09/17 01:23:30;;;;;;;0.10;0.10;;;;;;;;;;344103;28;859;-89
2022/09/17 01:24:19;;;;;;;0.30;0.00;;;;;;;;;;345307;28;871;-89